MDT,Max TemperatureF,Mean TemperatureF,Min TemperatureF,Max Dew PointF,MeanDew PointF,Min DewpointF,Max Humidity, Mean Humidity, Min Humidity, Max Sea Level PressureIn, Mean Sea Level PressureIn, Min Sea Level PressureIn, Max VisibilityMiles, Mean VisibilityMiles, Min VisibilityMiles, Max Wind SpeedMPH, Mean Wind SpeedMPH, Max Gust SpeedMPH,PrecipitationIn, CloudCover, Events, WindDirDegrees
2012-3-1,44,29,14,26,18,11,92,63,33,29.81,29.73,29.63,10,10,10,26,9,33,0.00,0,,297
2012-3-2,32,24,16,18,15,11,84,69,54,30.04,29.94,29.81,10,10,7,38,18,45,T,2,Snow,296
2012-3-3,45,30,15,32,22,11,84,64,43,30.03,29.92,29.78,10,10,3,25,8,32,0.03,7,Rain-Snow,293
2012-3-4,49,37,24,34,27,22,100,68,36,30.14,30.01,29.79,10,10,10,33,12,40,T,4,Rain,323
2012-3-5,68,46,23,33,25,20,88,52,15,30.03,29.77,29.53,10,10,10,12,7,14,0.00,0,,233
2012-3-6,74,55,36,34,27,22,70,42,14,29.72,29.51,29.34,10,10,10,30,15,40,0.00,2,,296
2012-3-7,39,30,20,24,17,12,71,54,37,30.26,29.98,29.73,10,10,10,33,16,41,0.00,4,,324
2012-3-8,57,39,21,20,16,13,81,50,18,30.45,30.37,30.28,10,10,10,28,12,40,0.00,0,,288
2012-3-9,72,45,17,25,18,13,91,51,10,30.44,30.18,29.92,10,10,10,16,8,21,0.00,0,,236
2012-3-10,77,54,30,38,20,13,59,34,8,29.92,29.80,29.67,10,10,10,16,7,22,0.00,0,,228
2012-3-11,70,56,41,43,40,36,76,57,37,29.67,29.57,29.46,10,10,10,24,10,29,0.00,0,,184
2012-3-12,65,49,32,36,27,18,92,54,16,29.86,29.70,29.44,10,10,10,29,10,35,0.00,0,,324
2012-3-13,81,56,30,32,23,17,75,42,9,29.83,29.67,29.53,10,10,10,31,11,41,0.00,0,,217
2012-3-14,62,49,36,26,20,10,59,37,15,29.99,29.87,29.60,10,10,10,24,9,31,0.00,0,,75
2012-3-15,71,50,29,32,28,24,85,54,23,30.01,29.93,29.86,10,10,10,14,7,18,0.00,0,,68
2012-3-16,87,59,30,34,28,23,82,46,10,29.85,29.66,29.53,10,10,10,29,8,36,0.00,0,,229
2012-3-17,83,63,42,45,35,26,70,43,16,29.64,29.53,29.40,10,10,10,21,9,24,0.00,0,,202
2012-3-18,86,61,35,52,34,18,76,42,8,29.43,29.31,29.19,10,10,10,33,14,45,0.00,0,,163
2012-3-19,68,55,41,54,23,6,59,35,10,29.68,29.41,29.20,10,10,10,26,16,37,0.00,1,,243
2012-3-20,58,41,24,28,22,18,81,52,22,29.99,29.90,29.72,10,10,10,24,7,29,0.00,0,,271
2012-3-21,70,46,21,22,17,12,84,48,11,30.01,29.96,29.90,10,10,10,13,4,17,0.00,0,,169
2012-3-22,60,43,26,54,41,18,100,75,50,30.03,29.95,29.89,10,9,0,13,4,15,0.00,6,Fog,27
2012-3-23,72,61,49,54,48,37,100,68,35,29.94,29.88,29.81,10,7,0,12,4,18,0.00,3,Fog,109
2012-3-24,65,50,34,40,35,30,83,57,31,30.20,30.06,29.83,10,10,10,31,13,40,0.00,1,,2
2012-3-25,47,37,26,38,34,25,100,86,71,30.20,30.10,30.01,10,9,0,21,10,26,0.00,6,Fog,86
2012-3-26,83,59,35,53,41,21,92,59,26,30.00,29.63,29.20,10,10,9,47,13,61,0.00,4,,114
2012-3-27,68,52,36,41,31,21,68,46,24,29.98,29.76,29.42,10,10,10,31,17,38,0.00,3,,285
2012-3-28,80,53,26,44,30,22,78,47,16,30.02,29.85,29.69,10,10,10,26,7,37,0.00,0,,111
2012-3-29,70,56,42,52,39,31,80,53,26,29.83,29.74,29.62,10,10,10,25,10,32,0.00,1,,357
2012-3-30,78,62,46,38,32,25,66,40,14,29.74,29.64,29.60,10,10,10,20,8,25,0.00,0,,354
2012-3-31,83,66,48,36,33,29,50,33,16,29.72,29.59,29.44,10,10,10,20,8,24,0.00,0,,209